Time;durP1;ratioP1;P1;durP2;ratioP2;P2;SDS_P1;SDS_P2;PMS_P1;PMS_P2;Temp;Humidity;BMP_temperature;BMP_pressure;BME280_temperature;BME280_humidity;BME280_pressure;Samples;Min_cycle;Max_cycle;Signal;HPM_P1;HPM_P2
2023/11/21 02:29:47;;;;;;;0.10;0.10;;;;;;;;;;6154872;23;20028;-90
2023/11/21 02:32:14;;;;;;;0.10;0.10;;;;;;;;;;6151044;23;20009;-92
2023/11/21 02:34:40;;;;;;;0.10;0.10;;;;;;;;;;6153270;23;20006;-91
2023/11/21 02:37:06;;;;;;;0.00;0.00;;;;;;;;;;6167711;23;20015;-92
2023/11/21 02:39:32;;;;;;;0.00;0.00;;;;;;;;;;6153140;23;20017;-92
2023/11/21 03:46:42;;;;;;;0.10;0.10;;;;;;;;;;6209534;22;20092;-90
2023/11/21 03:49:08;;;;;;;0.00;0.00;;;;;;;;;;6185238;22;19989;-89
2023/11/21 03:51:34;;;;;;;0.10;0.10;;;;;;;;;;6184332;22;19997;-90
2023/11/21 03:54:00;;;;;;;0.10;0.10;;;;;;;;;;6203593;22;20017;-90
2023/11/21 03:56:25;;;;;;;0.10;0.10;;;;;;;;;;6209718;22;20028;-90
2023/11/21 03:58:51;;;;;;;0.10;0.10;;;;;;;;;;6210264;22;20015;-91
2023/11/21 04:01:24;;;;;;;0.10;0.10;;;9.30;99.90;;;;;;6209540;22;20016;-91
2023/11/21 04:03:50;;;;;;;0.00;0.00;;;;;;;;;;6209238;22;20015;-92
2023/11/21 04:06:17;;;;;;;0.00;0.00;;;9.10;99.90;;;;;;6211101;22;19989;-91
2023/11/21 04:08:44;;;;;;;0.00;0.00;;;;;;;;;;6212137;22;20213;-91
2023/11/21 04:11:11;;;;;;;0.00;0.00;;;;;;;;;;6211797;22;20001;-89
2023/11/21 04:13:37;;;;;;;0.00;0.00;;;;;;;;;;6210500;22;19996;-91
2023/11/21 04:16:03;;;;;;;0.00;0.00;;;;;;;;;;6210355;22;20023;-91
2023/11/21 04:18:29;;;;;;;0.00;0.00;;;;;;;;;;6210746;22;20045;-90
2023/11/21 04:20:55;;;;;;;0.00;0.00;;;;;;;;;;6211704;22;19997;-91
2023/11/21 04:23:21;;;;;;;0.00;0.00;;;;;;;;;;6209973;22;20009;-90
2023/11/21 04:25:47;;;;;;;0.00;0.00;;;;;;;;;;6210414;22;19989;-91
2023/11/21 04:28:13;;;;;;;0.00;0.00;;;;;;;;;;6210423;22;20013;-91
2023/11/21 04:30:39;;;;;;;0.00;0.00;;;;;;;;;;6210551;22;20021;-91
2023/11/21 04:33:05;;;;;;;0.10;0.10;;;;;;;;;;6210068;22;20072;-92
2023/11/21 04:35:31;;;;;;;0.00;0.00;;;;;;;;;;6211614;22;19989;-90
2023/11/21 04:37:57;;;;;;;0.00;0.00;;;;;;;;;;6211496;22;20056;-90
2023/11/21 04:40:23;;;;;;;0.00;0.00;;;;;;;;;;6211537;22;20040;-90
2023/11/21 04:42:49;;;;;;;0.08;0.08;;;;;;;;;;6211217;22;20021;-91
2023/11/21 04:45:15;;;;;;;0.00;0.00;;;;;;;;;;6210806;22;20028;-90
2023/11/21 04:47:43;;;;;;;0.00;0.00;;;;;;;;;;6210754;22;20017;-90
2023/11/21 04:50:09;;;;;;;0.00;0.00;;;;;;;;;;6210930;22;20001;-90
2023/11/21 04:52:35;;;;;;;0.00;0.00;;;;;;;;;;6211528;22;20013;-91
2023/11/21 04:55:02;;;;;;;0.10;0.10;;;;;;;;;;6211732;22;20052;-91
2023/11/21 04:57:28;;;;;;;0.05;0.05;;;;;;;;;;6210907;22;20020;-89
2023/11/21 04:59:54;;;;;;;0.00;0.00;;;;;;;;;;6207743;22;20009;-90
2023/11/21 05:02:21;;;;;;;0.00;0.00;;;;;;;;;;6208316;22;20012;-90
2023/11/21 05:04:47;;;;;;;0.00;0.00;;;;;;;;;;6209167;22;19993;-91
2023/11/21 05:07:13;;;;;;;0.00;0.00;;;;;;;;;;6207948;22;19993;-91
2023/11/21 05:09:46;;;;;;;0.00;0.00;;;9.20;99.90;;;;;;6207524;22;20050;-90
2023/11/21 05:12:12;;;;;;;0.00;0.00;;;9.20;99.90;;;;;;6208543;22;20018;-90
2023/11/21 05:14:38;;;;;;;0.00;0.00;;;;;;;;;;6209790;22;20000;-90
2023/11/21 05:17:05;;;;;;;0.00;0.00;;;;;;;;;;6208394;22;20052;-90
2023/11/21 05:19:32;;;;;;;0.10;0.10;;;;;;;;;;6207680;22;20035;-91
2023/11/21 05:22:00;;;;;;;0.00;0.00;;;;;;;;;;6208999;22;20013;-91
2023/11/21 05:24:26;;;;;;;0.10;0.10;;;;;;;;;;6209917;22;20024;-91
2023/11/21 05:26:52;;;;;;;0.00;0.00;;;;;;;;;;6210580;22;20328;-90
2023/11/21 05:29:18;;;;;;;0.00;0.00;;;;;;;;;;6209899;22;20024;-91
2023/11/21 05:31:44;;;;;;;0.00;0.00;;;;;;;;;;6209508;22;20041;-90
2023/11/21 05:34:10;;;;;;;0.00;0.00;;;;;;;;;;6210934;22;19993;-90
2023/11/21 05:36:36;;;;;;;0.03;0.03;;;;;;;;;;6210178;22;20020;-91
2023/11/21 05:39:04;;;;;;;0.00;0.00;;;;;;;;;;6210426;22;19985;-91
2023/11/21 05:41:30;;;;;;;0.00;0.00;;;;;;;;;;6209836;22;20096;-91
2023/11/21 05:43:56;;;;;;;0.00;0.00;;;;;;;;;;6210698;22;20009;-90
2023/11/21 05:46:22;;;;;;;0.00;0.00;;;;;;;;;;6209196;22;20001;-90
2023/11/21 05:48:48;;;;;;;0.00;0.00;;;;;;;;;;6210868;22;20001;-90
2023/11/21 05:51:14;;;;;;;0.10;0.10;;;;;;;;;;6209402;22;20019;-89
2023/11/21 05:53:40;;;;;;;0.00;0.00;;;;;;;;;;6207316;22;19997;-91
2023/11/21 05:56:07;;;;;;;0.00;0.00;;;9.30;99.90;;;;;;6207769;22;19994;-92
2023/11/21 05:58:33;;;;;;;0.00;0.00;;;;;;;;;;6208633;22;20061;-90
2023/11/21 06:00:59;;;;;;;0.00;0.00;;;;;;;;;;6206063;22;19996;-90
2023/11/21 06:03:25;;;;;;;0.00;0.00;;;;;;;;;;6207984;22;20005;-89
2023/11/21 06:05:51;;;;;;;0.00;0.00;;;;;;;;;;6210429;22;20011;-90
2023/11/21 06:08:17;;;;;;;0.00;0.00;;;;;;;;;;6209826;22;20020;-90
2023/11/21 06:10:43;;;;;;;0.00;0.00;;;;;;;;;;6210535;22;20016;-90
2023/11/21 06:13:10;;;;;;;0.10;0.10;;;;;;;;;;6210917;22;20005;-91
2023/11/21 06:15:36;;;;;;;0.00;0.00;;;;;;;;;;6210868;22;20017;-90
2023/11/21 06:18:02;;;;;;;0.03;0.03;;;;;;;;;;6210336;22;19997;-91
2023/11/21 06:20:28;;;;;;;0.00;0.00;;;;;;;;;;6209493;22;19998;-90
2023/11/21 06:22:54;;;;;;;0.00;0.00;;;;;;;;;;6208762;22;20080;-91
2023/11/21 06:25:20;;;;;;;0.00;0.00;;;;;;;;;;6208125;22;20005;-92
2023/11/21 06:27:47;;;;;;;0.00;0.00;;;9.20;99.90;;;;;;6209574;22;20013;-90
2023/11/21 06:30:15;;;;;;;0.00;0.00;;;9.20;99.90;;;;;;6210716;22;19997;-91
2023/11/21 06:32:41;;;;;;;0.00;0.00;;;;;;;;;;6210415;22;19997;-90
2023/11/21 06:35:08;;;;;;;0.00;0.00;;;9.20;99.90;;;;;;6210601;22;19993;-92
2023/11/21 06:37:34;;;;;;;0.00;0.00;;;;;;;;;;6210375;22;20023;-91
2023/11/21 06:40:00;;;;;;;0.00;0.00;;;;;;;;;;6210901;22;20044;-91
2023/11/21 06:42:27;;;;;;;0.00;0.00;;;9.30;99.90;;;;;;6210306;22;20060;-90
2023/11/21 06:44:53;;;;;;;0.00;0.00;;;;;;;;;;6208384;22;20005;-90
2023/11/21 06:47:27;;;;;;;0.00;0.00;;;;;;;;;;6210038;22;20001;-90
2023/11/21 06:49:53;;;;;;;0.10;0.10;;;;;;;;;;6210928;22;19997;-91
2023/11/21 06:52:20;;;;;;;0.00;0.00;;;;;;;;;;6210364;22;20045;-91
2023/11/21 06:54:47;;;;;;;0.00;0.00;;;;;;;;;;6210719;22;19997;-91
2023/11/21 06:57:13;;;;;;;0.00;0.00;;;;;;;;;;6210052;22;19989;-90
2023/11/21 06:59:39;;;;;;;0.03;0.03;;;;;;;;;;6210228;22;20194;-91
2023/11/21 07:02:06;;;;;;;0.00;0.00;;;;;;;;;;6210946;22;20001;-91
2023/11/21 07:04:32;;;;;;;0.00;0.00;;;;;;;;;;6210607;22;19989;-91
2023/11/21 07:06:58;;;;;;;0.00;0.00;;;;;;;;;;6210497;22;20008;-91
2023/11/21 07:09:25;;;;;;;0.00;0.00;;;;;;;;;;6210288;22;20009;-90
2023/11/21 07:11:51;;;;;;;0.00;0.00;;;;;;;;;;6210837;22;20011;-91
2023/11/21 07:14:19;;;;;;;0.00;0.00;;;;;;;;;;6210337;22;20048;-91
2023/11/21 07:16:52;;;;;;;0.10;0.10;;;8.90;99.90;;;;;;6209685;22;20028;-90
2023/11/21 07:19:19;;;;;;;0.10;0.10;;;;;;;;;;6210525;22;19993;-92
2023/11/21 07:21:45;;;;;;;0.10;0.10;;;;;;;;;;6210663;22;20017;-92
2023/11/21 07:24:11;;;;;;;0.00;0.00;;;;;;;;;;6210892;22;20021;-90
2023/11/21 07:26:37;;;;;;;0.00;0.00;;;;;;;;;;6210184;22;19997;-91
2023/11/21 07:29:03;;;;;;;0.00;0.00;;;;;;;;;;6210887;22;19997;-91
2023/11/21 07:31:31;;;;;;;0.00;0.00;;;;;;;;;;6210572;22;20012;-91
2023/11/21 07:33:57;;;;;;;0.00;0.00;;;;;;;;;;6210651;22;20016;-91
2023/11/21 07:36:23;;;;;;;0.00;0.00;;;;;;;;;;6210111;22;20001;-91
2023/11/21 07:38:49;;;;;;;0.08;0.08;;;;;;;;;;6210817;22;20020;-91
2023/11/21 07:41:15;;;;;;;0.00;0.00;;;;;;;;;;6212884;22;20001;-91
2023/11/21 07:43:42;;;;;;;0.10;0.10;;;9.20;99.90;;;;;;6212757;22;20052;-91
2023/11/21 07:46:08;;;;;;;0.10;0.10;;;;;;;;;;6212208;22;20008;-94
2023/11/21 07:48:34;;;;;;;0.05;0.05;;;;;;;;;;6211979;22;20004;-92
2023/11/21 07:51:03;;;;;;;0.00;0.00;;;9.50;99.90;;;;;;6210126;22;20004;-91
2023/11/21 07:53:30;;;;;;;0.10;0.10;;;;;;;;;;6211356;22;20007;-91
2023/11/21 07:55:56;;;;;;;0.00;0.00;;;;;;;;;;6212260;22;19993;-92
2023/11/21 07:58:22;;;;;;;0.00;0.00;;;;;;;;;;6212110;22;19997;-90
2023/11/21 08:00:48;;;;;;;0.00;0.00;;;;;;;;;;6211848;22;20023;-92
2023/11/21 08:03:14;;;;;;;0.00;0.00;;;;;;;;;;6211711;22;20024;-90
2023/11/21 08:05:40;;;;;;;0.10;0.10;;;;;;;;;;6212476;22;20032;-92
2023/11/21 08:08:07;;;;;;;0.03;0.03;;;;;;;;;;6211599;22;20049;-92
2023/11/21 08:10:33;;;;;;;0.00;0.00;;;;;;;;;;6211201;22;19993;-92
2023/11/21 08:12:59;;;;;;;0.05;0.05;;;;;;;;;;6211101;22;20361;-91
2023/11/21 08:15:25;;;;;;;0.00;0.00;;;;;;;;;;6211273;22;20016;-91
2023/11/21 08:17:51;;;;;;;0.00;0.00;;;;;;;;;;6211074;22;20037;-91
2023/11/21 08:20:17;;;;;;;0.10;0.10;;;;;;;;;;6212121;22;19989;-91
2023/11/21 08:22:44;;;;;;;0.10;0.10;;;9.50;99.90;;;;;;6209803;22;20028;-91
2023/11/21 08:25:10;;;;;;;0.08;0.08;;;;;;;;;;6211972;22;20005;-91
2023/11/21 08:27:39;;;;;;;0.08;0.08;;;;;;;;;;6211505;22;20005;-91
2023/11/21 08:30:05;;;;;;;0.10;0.10;;;9.30;99.90;;;;;;6212274;22;19996;-91
2023/11/21 08:32:33;;;;;;;0.10;0.10;;;;;;;;;;6211593;22;19990;-91
2023/11/21 08:34:59;;;;;;;0.10;0.10;;;;;;;;;;6212029;22;20020;-91
2023/11/21 08:37:26;;;;;;;0.00;0.00;;;;;;;;;;6211560;22;20032;-91
2023/11/21 08:39:52;;;;;;;0.10;0.10;;;;;;;;;;6211832;22;19998;-93
2023/11/21 08:42:18;;;;;;;0.00;0.00;;;;;;;;;;6211307;22;20047;-92
2023/11/21 08:44:44;;;;;;;0.10;0.10;;;;;;;;;;6211516;22;20025;-92
2023/11/21 08:47:10;;;;;;;0.10;0.10;;;;;;;;;;6211784;22;19989;-92
2023/11/21 08:49:37;;;;;;;0.10;0.10;;;;;;;;;;6211722;22;20004;-91
2023/11/21 08:52:04;;;;;;;0.03;0.03;;;;;;;;;;6210834;22;20012;-91
2023/11/21 08:54:31;;;;;;;0.10;0.10;;;;;;;;;;6212177;22;19990;-90
2023/11/21 08:56:58;;;;;;;0.10;0.10;;;;;;;;;;6212042;22;19997;-90
2023/11/21 08:59:24;;;;;;;0.00;0.00;;;;;;;;;;6211819;22;20001;-91
2023/11/21 09:01:50;;;;;;;0.10;0.10;;;;;;;;;;6211689;22;20007;-92
2023/11/21 09:04:16;;;;;;;0.05;0.05;;;;;;;;;;6211839;22;19997;-91
2023/11/21 09:06:42;;;;;;;0.10;0.10;;;;;;;;;;6211728;22;20012;-91
2023/11/21 09:09:10;;;;;;;0.00;0.00;;;9.20;99.90;;;;;;6211970;22;20013;-91
2023/11/21 09:11:36;;;;;;;0.10;0.10;;;;;;;;;;6211787;22;19989;-91
2023/11/21 09:14:03;;;;;;;0.10;0.10;;;;;;;;;;6211584;22;20044;-91
2023/11/21 09:16:29;;;;;;;0.10;0.10;;;;;;;;;;6208401;22;20020;-91
2023/11/21 09:18:55;;;;;;;0.10;0.10;;;;;;;;;;6211063;22;20017;-91
2023/11/21 09:21:21;;;;;;;0.10;0.10;;;;;;;;;;6211210;22;19997;-92
2023/11/21 09:23:47;;;;;;;0.00;0.00;;;;;;;;;;6210723;22;20009;-91
2023/11/21 09:26:16;;;;;;;0.00;0.00;;;;;;;;;;6210993;22;19997;-92
2023/11/21 09:28:46;;;;;;;0.00;0.00;;;;;;;;;;6210691;22;20017;-90
2023/11/21 09:31:12;;;;;;;0.10;0.10;;;;;;;;;;6211298;22;19996;-91
2023/11/21 09:33:38;;;;;;;0.00;0.00;;;;;;;;;;6210897;22;20025;-92
2023/11/21 09:36:04;;;;;;;0.00;0.00;;;9.00;99.90;;;;;;6210297;22;19993;-91
2023/11/21 09:38:31;;;;;;;0.00;0.00;;;;;;;;;;6210983;22;19989;-91
2023/11/21 09:40:58;;;;;;;0.00;0.00;;;;;;;;;;6210732;22;19993;-91
2023/11/21 09:43:27;;;;;;;0.10;0.10;;;8.90;99.90;;;;;;6210966;22;20011;-90
2023/11/21 09:45:59;;;;;;;0.10;0.10;;;8.80;99.90;;;;;;6210587;22;20077;-91
2023/11/21 09:48:26;;;;;;;0.00;0.00;;;8.90;99.90;;;;;;6210335;22;20021;-90
2023/11/21 09:50:53;;;;;;;0.00;0.00;;;8.80;99.90;;;;;;6211229;22;20048;-91
2023/11/21 09:53:21;;;;;;;0.00;0.00;;;8.80;99.90;;;;;;6210845;22;20012;-91
2023/11/21 09:55:50;;;;;;;0.10;0.10;;;8.80;99.90;;;;;;6211250;22;19989;-92
2023/11/21 09:58:16;;;;;;;0.08;0.08;;;;;;;;;;6211109;22;20213;-90
2023/11/21 10:00:43;;;;;;;0.00;0.00;;;9.00;99.90;;;;;;6189461;22;20006;-90
2023/11/21 10:03:09;;;;;;;0.10;0.10;;;;;;;;;;6205292;23;20017;-89
2023/11/21 10:05:36;;;;;;;0.00;0.00;;;9.10;99.90;;;;;;6181682;23;20001;-90
2023/11/21 10:08:07;;;;;;;0.00;0.00;;;9.10;99.90;;;;;;6156392;23;20013;-89
2023/11/21 10:10:33;;;;;;;0.00;0.00;;;;;;;;;;6156700;23;20042;-90
2023/11/21 10:13:05;;;;;;;0.00;0.00;;;9.10;99.90;;;;;;6181076;23;20085;-89
2023/11/21 10:15:34;;;;;;;0.10;0.10;;;;;;;;;;6156991;23;20001;-89
2023/11/21 10:18:00;;;;;;;0.00;0.00;;;;;;;;;;6181253;23;20004;-90
2023/11/21 10:20:26;;;;;;;0.05;0.05;;;;;;;;;;6181917;23;19996;-89
2023/11/21 10:22:52;;;;;;;0.00;0.00;;;;;;;;;;6181053;23;20016;-88
2023/11/21 10:25:20;;;;;;;0.00;0.00;;;;;;;;;;6181289;23;20013;-90
2023/11/21 10:27:50;;;;;;;0.10;0.10;;;9.30;99.90;;;;;;6180512;23;20013;-89
2023/11/21 10:30:16;;;;;;;0.00;0.00;;;;;;;;;;6156875;23;19997;-91
2023/11/21 10:32:42;;;;;;;0.10;0.10;;;;;;;;;;6180773;23;20005;-92
2023/11/21 10:35:10;;;;;;;0.10;0.10;;;;;;;;;;6181079;23;20057;-90
2023/11/21 10:37:39;;;;;;;0.10;0.10;;;9.00;99.90;;;;;;6177975;23;19993;-91
2023/11/21 10:40:05;;;;;;;0.10;0.10;;;;;;;;;;6155676;23;19990;-90
2023/11/21 10:42:32;;;;;;;0.10;0.10;;;8.90;99.90;;;;;;6180511;23;20009;-89
2023/11/21 10:44:58;;;;;;;0.10;0.10;;;;;;;;;;6155648;23;20009;-90
2023/11/21 10:47:26;;;;;;;0.10;0.10;;;;;;;;;;6180416;23;20087;-89
2023/11/21 10:49:55;;;;;;;0.10;0.10;;;;;;;;;;6179556;23;19990;-89
2023/11/21 10:52:21;;;;;;;0.10;0.10;;;9.00;99.90;;;;;;6180092;23;20020;-89
2023/11/21 10:54:47;;;;;;;0.00;0.00;;;9.00;99.90;;;;;;6155689;23;20002;-90
2023/11/21 10:57:17;;;;;;;0.10;0.10;;;9.10;99.90;;;;;;6155886;23;20061;-90
2023/11/21 10:59:46;;;;;;;0.10;0.10;;;9.20;99.90;;;;;;6155495;23;20066;-89
2023/11/21 11:02:27;;;;;;;0.00;0.00;;;9.10;99.90;;;;;;6155981;23;20016;-90
2023/11/21 11:04:53;;;;;;;0.10;0.10;;;;;;;;;;6156251;23;20017;-90
2023/11/21 11:07:25;;;;;;;0.10;0.10;;;9.20;99.90;;;;;;6180606;23;20033;-88
2023/11/21 11:09:51;;;;;;;0.10;0.10;;;;;;;;;;6155746;23;20012;-89
2023/11/21 11:12:19;;;;;;;0.00;0.00;;;;;;;;;;6180679;23;20013;-90
2023/11/21 11:14:45;;;;;;;0.10;0.10;;;;;;;;;;6182477;23;20017;-89
2023/11/21 11:17:11;;;;;;;0.00;0.00;;;;;;;;;;6183866;23;19993;-90
2023/11/21 11:19:37;;;;;;;0.00;0.00;;;;;;;;;;6183290;23;19993;-91
2023/11/21 11:22:25;;;;;;;0.05;0.05;;;9.00;99.90;;;;;;6182584;23;20053;-91
2023/11/21 11:25:13;;;;;;;0.10;0.10;;;8.90;99.90;;;;;;6174294;23;20001;-90
2023/11/21 11:28:20;;;;;;;0.10;0.10;;;8.90;99.90;;;;;;6207038;23;19993;-87
2023/11/21 11:31:08;;;;;;;0.10;0.10;;;9.00;99.90;;;;;;6154010;23;20025;-90
2023/11/21 11:33:48;;;;;;;0.10;0.10;;;9.00;99.90;;;;;;6207798;23;20005;-89
2023/11/21 11:36:48;;;;;;;0.10;0.10;;;9.00;99.90;;;;;;6158264;23;20008;-89
2023/11/21 12:00:12;;;;;;;0.10;0.10;;;8.60;99.90;;;;;;6184978;23;20021;-91
2023/11/21 12:02:47;;;;;;;0.10;0.10;;;8.60;99.90;;;;;;6207262;23;20025;-92
2023/11/21 12:05:19;;;;;;;0.00;0.00;;;8.60;99.90;;;;;;6157463;23;20009;-91
2023/11/21 12:07:54;;;;;;;0.10;0.10;;;8.70;99.90;;;;;;6157663;23;19993;-90
2023/11/21 12:10:31;;;;;;;0.10;0.10;;;9.00;99.90;;;;;;6155987;23;20009;-89
2023/11/21 12:12:59;;;;;;;0.10;0.10;;;8.70;99.90;;;;;;6156698;23;20025;-90
2023/11/21 12:15:26;;;;;;;0.10;0.10;;;;;;;;;;6157449;23;20009;-89
2023/11/21 12:17:52;;;;;;;0.10;0.10;;;8.60;99.90;;;;;;6181324;23;19997;-89
2023/11/21 12:20:19;;;;;;;0.10;0.10;;;8.60;99.90;;;;;;6156909;23;20070;-90
2023/11/21 12:22:50;;;;;;;0.10;0.10;;;8.60;99.90;;;;;;6157091;23;20005;-91
2023/11/21 12:25:18;;;;;;;0.10;0.10;;;8.50;99.90;;;;;;6156702;23;20188;-90
2023/11/21 12:27:49;;;;;;;0.10;0.10;;;8.50;99.90;;;;;;6180338;23;20010;-91
2023/11/21 12:30:17;;;;;;;0.10;0.10;;;8.70;99.90;;;;;;6155803;23;20009;-90
2023/11/21 12:32:50;;;;;;;0.00;0.00;;;8.70;99.90;;;;;;6155994;23;20002;-90
2023/11/21 12:35:19;;;;;;;0.10;0.10;;;8.70;99.90;;;;;;6156022;23;20001;-90
2023/11/21 12:37:48;;;;;;;0.10;0.10;;;8.80;99.90;;;;;;6153125;23;20013;-89
2023/11/21 12:40:15;;;;;;;0.10;0.10;;;8.80;99.90;;;;;;6154602;23;20053;-91
2023/11/21 12:42:42;;;;;;;0.00;0.00;;;9.00;99.90;;;;;;6155239;23;20040;-90
2023/11/21 12:45:29;;;;;;;0.10;0.10;;;9.10;99.90;;;;;;6154843;23;19997;-89
2023/11/21 12:47:55;;;;;;;0.00;0.00;;;;;;;;;;6155122;23;20002;-91
2023/11/21 12:50:28;;;;;;;0.10;0.10;;;9.30;99.90;;;;;;6178475;23;20010;-90
2023/11/21 12:52:57;;;;;;;0.10;0.10;;;9.30;99.90;;;;;;6154937;23;20012;-89
2023/11/21 12:55:24;;;;;;;0.00;0.00;;;9.30;99.90;;;;;;6154253;23;19994;-91
2023/11/21 12:57:57;;;;;;;0.10;0.10;;;9.20;99.90;;;;;;6154909;23;19994;-90
2023/11/21 13:00:53;;;;;;;0.10;0.10;;;9.30;99.90;;;;;;6154432;23;19993;-90
2023/11/21 13:03:25;;;;;;;0.10;0.10;;;;;;;;;;6124605;23;20052;-91
2023/11/21 13:05:53;;;;;;;0.10;0.10;;;;;;;;;;6179091;23;19994;-89
2023/11/21 13:08:21;;;;;;;0.10;0.10;;;;;;;;;;6178941;23;20037;-91
2023/11/21 13:10:50;;;;;;;0.10;0.10;;;9.30;99.90;;;;;;6177892;23;19990;-90
2023/11/21 13:13:17;;;;;;;0.10;0.10;;;;;;;;;;6154508;23;20014;-90
2023/11/21 13:15:52;;;;;;;0.00;0.00;;;9.40;99.90;;;;;;6179377;23;20050;-91
2023/11/21 13:18:18;;;;;;;0.10;0.10;;;;;;;;;;6153392;23;19993;-90
2023/11/21 13:20:45;;;;;;;0.10;0.10;;;;;;;;;;6176148;23;20006;-87
2023/11/21 13:23:11;;;;;;;0.10;0.10;;;;;;;;;;6177509;23;20021;-91
2023/11/21 13:25:40;;;;;;;0.10;0.10;;;9.40;99.90;;;;;;6179151;23;20010;-92
2023/11/21 13:28:06;;;;;;;0.10;0.10;;;;;;;;;;6154581;23;20017;-90
2023/11/21 13:30:35;;;;;;;0.10;0.10;;;;;;;;;;6179639;23;20050;-89
2023/11/21 13:33:06;;;;;;;0.10;0.10;;;9.10;99.90;;;;;;6178417;23;19997;-90
2023/11/21 13:35:43;;;;;;;0.10;0.10;;;9.10;99.90;;;;;;6152466;23;20006;-91
2023/11/21 13:38:14;;;;;;;0.10;0.10;;;9.00;99.90;;;;;;6152940;23;20009;-92
2023/11/21 13:40:44;;;;;;;0.10;0.10;;;8.90;99.90;;;;;;6154120;23;20004;-91
2023/11/21 13:43:10;;;;;;;0.10;0.10;;;;;;;;;;6153859;23;20006;-91
2023/11/21 13:45:39;;;;;;;0.10;0.10;;;8.70;99.90;;;;;;6178108;23;20013;-90
2023/11/21 13:48:09;;;;;;;0.00;0.00;;;;;;;;;;6153485;23;20000;-88
2023/11/21 13:50:35;;;;;;;0.03;0.03;;;;;;;;;;6178073;23;20029;-91
2023/11/21 13:53:16;;;;;;;0.10;0.10;;;;;;;;;;6174135;23;19993;-92
2023/11/21 13:55:42;;;;;;;0.10;0.10;;;;;;;;;;6172109;23;20169;-89
2023/11/21 13:58:11;;;;;;;0.10;0.10;;;;;;;;;;6172291;23;20698;-91
2023/11/21 14:00:52;;;;;;;0.10;0.10;;;;;;;;;;6172212;23;20013;-92
2023/11/21 14:03:21;;;;;;;0.10;0.10;;;;;;;;;;6173013;23;20028;-92
2023/11/21 14:05:50;;;;;;;0.10;0.10;;;;;;;;;;6171669;23;20017;-92
2023/11/21 14:08:21;;;;;;;0.10;0.10;;;8.80;99.90;;;;;;6171120;23;20013;-91
2023/11/21 14:10:57;;;;;;;0.10;0.10;;;8.70;99.90;;;;;;6147411;23;20001;-92
2023/11/21 14:13:24;;;;;;;0.10;0.10;;;;;;;;;;6148874;23;20001;-91
2023/11/21 14:16:02;;;;;;;0.10;0.10;;;;;;;;;;6171963;23;20037;-90
2023/11/21 14:18:38;;;;;;;0.10;0.10;;;;;;;;;;6169151;23;20002;-92
2023/11/21 14:21:05;;;;;;;0.10;0.10;;;8.70;99.90;;;;;;6166385;23;20008;-90
2023/11/21 14:23:33;;;;;;;0.10;0.10;;;;;;;;;;6131277;23;20021;-91
2023/11/21 14:26:01;;;;;;;0.10;0.10;;;;;;;;;;6160793;23;20073;-91
2023/11/21 14:28:27;;;;;;;0.10;0.10;;;;;;;;;;6159082;23;20032;-92
2023/11/21 14:30:53;;;;;;;0.10;0.10;;;;;;;;;;6159521;23;20002;-92
2023/11/21 14:33:19;;;;;;;0.10;0.10;;;;;;;;;;6158886;23;20052;-91
2023/11/21 14:35:46;;;;;;;0.10;0.10;;;;;;;;;;6159959;23;20014;-92
2023/11/21 14:38:13;;;;;;;0.08;0.08;;;;;;;;;;6158840;23;20390;-91
2023/11/21 14:40:40;;;;;;;0.10;0.10;;;;;;;;;;6159799;23;20010;-92
2023/11/21 14:43:06;;;;;;;0.10;0.10;;;;;;;;;;6158429;23;20005;-90
2023/11/21 14:45:33;;;;;;;0.10;0.10;;;;;;;;;;6159373;23;20006;-90
2023/11/21 14:48:15;;;;;;;0.10;0.10;;;;;;;;;;6159283;23;20005;-91
2023/11/21 14:53:08;;;;;;;0.10;0.10;;;;;;;;;;6160011;23;20021;-94
2023/11/21 14:55:55;;;;;;;0.10;0.10;;;;;;;;;;6160332;23;20009;-92
2023/11/21 14:58:27;;;;;;;0.10;0.10;;;;;;;;;;6157540;23;20032;-91
2023/11/21 15:00:57;;;;;;;0.10;0.10;;;8.40;99.90;;;;;;6157238;23;20088;-92
2023/11/21 15:06:04;;;;;;;0.10;0.10;;;;;;;;;;6172794;23;20014;-92
2023/11/21 15:08:32;;;;;;;0.10;0.10;;;;;;;;;;6163480;23;20068;-92
2023/11/21 15:10:58;;;;;;;0.10;0.10;;;;;;;;;;6162496;23;20102;-92
2023/11/21 15:13:27;;;;;;;0.10;0.10;;;;;;;;;;6161407;23;20001;-92
2023/11/21 15:15:56;;;;;;;0.10;0.10;;;;;;;;;;6161652;23;20017;-92
2023/11/21 15:18:22;;;;;;;0.10;0.10;;;;;;;;;;6161727;23;20040;-92
2023/11/21 15:20:48;;;;;;;0.10;0.10;;;;;;;;;;6161129;23;20080;-93
2023/11/21 15:23:14;;;;;;;0.10;0.10;;;;;;;;;;6161498;23;20009;-93
2023/11/21 15:25:40;;;;;;;0.10;0.10;;;;;;;;;;6161820;23;20033;-93
2023/11/21 15:28:06;;;;;;;0.10;0.10;;;;;;;;;;6161001;23;20006;-92
2023/11/21 15:30:33;;;;;;;0.10;0.10;;;;;;;;;;6161790;23;20060;-92
2023/11/21 15:32:59;;;;;;;0.10;0.10;;;;;;;;;;6161926;23;20061;-93
2023/11/21 15:35:27;;;;;;;0.10;0.10;;;;;;;;;;6164198;23;20041;-92
2023/11/21 15:37:53;;;;;;;0.10;0.10;;;;;;;;;;6166311;23;20009;-92
2023/11/21 15:40:19;;;;;;;0.10;0.10;;;;;;;;;;6165265;23;20041;-90
2023/11/21 15:42:45;;;;;;;0.10;0.10;;;;;;;;;;6163407;23;20047;-93
2023/11/21 15:45:11;;;;;;;0.10;0.10;;;;;;;;;;6165522;23;20029;-91
2023/11/21 15:47:37;;;;;;;0.10;0.10;;;;;;;;;;6167857;23;20009;-92
2023/11/21 15:50:08;;;;;;;0.10;0.10;;;;;;;;;;6166390;23;20006;-92
2023/11/21 15:52:34;;;;;;;0.00;0.00;;;;;;;;;;6165695;23;20008;-93
2023/11/21 15:55:00;;;;;;;0.10;0.10;;;;;;;;;;6166570;23;20017;-92
2023/11/21 15:57:26;;;;;;;0.10;0.10;;;;;;;;;;6164837;23;20009;-91
2023/11/21 15:59:53;;;;;;;0.10;0.10;;;;;;;;;;6166716;23;20077;-92
2023/11/21 16:02:19;;;;;;;0.10;0.10;;;;;;;;;;6167869;23;20017;-92
2023/11/21 16:04:45;;;;;;;0.10;0.10;;;;;;;;;;6168182;23;20009;-91
2023/11/21 16:07:11;;;;;;;0.10;0.10;;;;;;;;;;6167158;23;20009;-91
2023/11/21 16:09:38;;;;;;;0.10;0.10;;;;;;;;;;6168877;23;20008;-92
2023/11/21 16:12:05;;;;;;;0.10;0.10;;;7.90;99.90;;;;;;6167504;23;20315;-92
2023/11/21 16:14:41;;;;;;;0.10;0.10;;;8.00;99.90;;;;;;6143992;23;20024;-92
2023/11/21 16:17:07;;;;;;;0.10;0.10;;;;;;;;;;6141278;23;20005;-92
2023/11/21 16:19:33;;;;;;;0.10;0.10;;;;;;;;;;6168807;23;20356;-92
2023/11/21 16:22:00;;;;;;;0.10;0.10;;;;;;;;;;6167778;23;20012;-92
2023/11/21 16:24:27;;;;;;;0.10;0.10;;;7.90;99.90;;;;;;6167891;23;20002;-93
2023/11/21 16:26:57;;;;;;;0.10;0.10;;;;;;;;;;6144778;23;20002;-90
2023/11/21 16:29:23;;;;;;;0.10;0.10;;;;;;;;;;6168705;23;20041;-92
2023/11/21 16:31:51;;;;;;;0.10;0.10;;;;;;;;;;6168137;23;20009;-92
2023/11/21 16:34:18;;;;;;;0.10;0.10;;;7.80;99.90;;;;;;6170703;23;20012;-91
2023/11/21 16:36:45;;;;;;;0.10;0.10;;;;;;;;;;6144932;23;20009;-93
2023/11/21 16:39:12;;;;;;;0.10;0.10;;;;;;;;;;6170309;23;20109;-91
2023/11/21 16:41:38;;;;;;;0.10;0.10;;;;;;;;;;6170597;23;20006;-93
2023/11/21 16:44:04;;;;;;;0.10;0.10;;;7.80;99.90;;;;;;6170783;23;20063;-92
2023/11/21 16:46:30;;;;;;;0.10;0.10;;;;;;;;;;6143880;23;20014;-92
2023/11/21 16:48:56;;;;;;;0.10;0.10;;;;;;;;;;6172857;23;20063;-92
2023/11/21 16:51:22;;;;;;;0.10;0.10;;;;;;;;;;6175697;23;20006;-91
2023/11/21 16:53:48;;;;;;;0.10;0.10;;;;;;;;;;6175446;23;20070;-93
2023/11/21 16:56:14;;;;;;;0.10;0.10;;;;;;;;;;6175497;23;20040;-91
2023/11/21 16:58:40;;;;;;;0.10;0.10;;;;;;;;;;6175803;23;20001;-92
2023/11/21 17:01:07;;;;;;;0.10;0.10;;;;;;;;;;6175361;23;20002;-91
2023/11/21 17:03:34;;;;;;;0.10;0.10;;;;;;;;;;6178717;23;20009;-93
2023/11/21 17:06:00;;;;;;;0.10;0.10;;;7.90;99.90;;;;;;6178650;23;20033;-92
2023/11/21 17:08:26;;;;;;;0.10;0.10;;;;;;;;;;6153327;23;20050;-92
2023/11/21 17:10:51;;;;;;;0.10;0.10;;;;;;;;;;6178829;23;20037;-93
2023/11/21 17:13:18;;;;;;;0.10;0.10;;;;;;;;;;6178922;23;20051;-91
2023/11/21 17:15:46;;;;;;;0.10;0.10;;;;;;;;;;6179223;23;20004;-92
2023/11/21 17:18:11;;;;;;;0.10;0.10;;;;;;;;;;6179564;23;20037;-91
2023/11/21 17:20:37;;;;;;;0.10;0.10;;;;;;;;;;6179517;23;19997;-91
2023/11/21 17:23:05;;;;;;;0.10;0.10;;;;;;;;;;6179254;23;20025;-89
2023/11/21 17:25:31;;;;;;;0.10;0.10;;;;;;;;;;6180193;23;20073;-90
2023/11/21 18:35:15;;;;;;;0.10;0.10;;;;;;;;;;6199205;23;20025;-91
2023/11/21 18:37:42;;;;;;;0.10;0.10;;;;;;;;;;6176206;23;20387;-91
2023/11/21 18:40:09;;;;;;;0.10;0.10;;;7.30;99.90;;;;;;6173872;23;20020;-90
2023/11/21 18:42:35;;;;;;;0.10;0.10;;;;;;;;;;6225390;23;20005;-91
2023/11/21 18:45:01;;;;;;;0.10;0.10;;;;;;;;;;6176632;23;20461;-91
2023/11/21 18:47:27;;;;;;;0.10;0.10;;;;;;;;;;6176297;23;20012;-92
2023/11/21 18:49:54;;;;;;;0.10;0.10;;;;;;;;;;6172112;23;20005;-94
2023/11/21 18:52:20;;;;;;;0.10;0.10;;;;;;;;;;6172182;23;20009;-92
2023/11/21 18:54:48;;;;;;;0.10;0.10;;;;;;;;;;6170359;23;20016;-92
2023/11/21 18:57:14;;;;;;;0.10;0.10;;;;;;;;;;6171028;23;20009;-92
2023/11/21 18:59:41;;;;;;;0.13;0.13;;;;;;;;;;6171902;23;20007;-92
2023/11/21 19:02:12;;;;;;;0.10;0.10;;;;;;;;;;6171440;23;20005;-93
2023/11/21 19:04:38;;;;;;;0.10;0.10;;;;;;;;;;6169790;23;20004;-93
2023/11/21 19:07:05;;;;;;;0.10;0.10;;;;;;;;;;6167357;23;20008;-92
2023/11/21 19:09:33;;;;;;;0.10;0.10;;;;;;;;;;6171079;23;20093;-92
2023/11/21 19:11:59;;;;;;;0.10;0.10;;;;;;;;;;6171429;23;20008;-92
2023/11/21 19:14:25;;;;;;;0.10;0.10;;;;;;;;;;6172254;23;20013;-92
2023/11/21 19:16:51;;;;;;;0.10;0.10;;;;;;;;;;6173684;23;20009;-92
2023/11/21 19:19:17;;;;;;;0.10;0.10;;;;;;;;;;6171251;23;20016;-92
2023/11/21 19:21:44;;;;;;;0.10;0.10;;;;;;;;;;6167639;23;20040;-91
2023/11/21 19:24:10;;;;;;;0.10;0.10;;;;;;;;;;6167448;23;20005;-91
2023/11/21 19:26:39;;;;;;;0.10;0.10;;;7.20;99.90;;;;;;6169567;23;20012;-92